Portada
METAR-TAF:

METAR-TAF

Aeroports :

Lebanon, Nova Hampshire, Estats Units d'Amèrica

latitud: 43-37-38N, longitud: 072-18-21W, altitud: 182 m

Observació

L'informe es va fer fa 46 minuts, a les 16:53 UTC
Vent 4 kt amb direcció variable
Temperatura 28°C
Humitat 51%
Pressió 1021 hPa
Visibilitat: 16.1 km
Cel clar

METAR: KLEB 261653Z VRB04KT 10SM CLR 28/17 A3016 RMK AO2 SLP201 T02830172 $

Hora: 13:39 (17:39 UTC)

Pronòstic

L'informe es va fer fa 6 hores i 19 minuts, a les 11:20 UTC
Pronòstic vàlid del 26 a les 12 UTC al 27 a les 12 UTC
Vent kt del Nord
Visibilitat: 10 km
Cel ennuvolat a una alçada de 700 ft
Cel cobert a una alçada de 1500 ft
A partir de les 26 a les 1400 UTC
Vent 4 kt del Sud
Visibilitat: 10 km
Escasses núvols a una alçada de 5000 ft

TAF: KLEB 261120Z 2612/2712 00000KT P6SM BKN007 OVC015 FM261400 19004KT P6SM FEW050

Observacions i pronòstics meteorològics de més de 4000 aeroports (METAR i TAF).

Les estacions disponibles són els punts grocs i vermells al mapa.

Posi el ratolí al punt desitjat per veure el nom de l'estació.

Feu clic per veure les observacions i els pronòstics meteorològics.

Per canviar el mapa: feu clic els botons verds amb una creu de color negre per apropar; al botó verd amb un guió per allunyar la imatge; o en les fletxes verdes per a mapes adjacents.


METAR-TAF: